< Cyclone 199904 1999 Season Cyclone 199906 >
Cyclone 199905 (CATHY)
General InformationDetailed Track InformationTrack Information on Google MapsList of All Images || ResourceGoogle EarthGE AnimationAtom FeedGeoJSON
Detalied Best Track Wind (Time Zone = UTC)
Year Month Day Hour Lat. Long. Wind (kt) Gust (kt) Direc. of Major Storm Axis Radius of Major Storm Axis (nm) Radius of Minor Storm Axis (nm) Direc. of Major Gale Axis Radius of Major Gale Axis (nm) Radius of Minor Gale Axis (nm) Image
1998 12 22 19 -11.0 100.6 23 -1 symmetric - - symmetric - - Image
1998 12 22 22 -11.2 100.6 23 -1 symmetric - - symmetric - - Image
1998 12 23 01 -11.4 100.7 23 -1 symmetric - - symmetric - - Image
1998 12 23 04 -11.7 100.7 23 -1 symmetric - - symmetric - - Image
1998 12 23 07 -12.1 100.8 23 -1 symmetric - - symmetric - - Image
1998 12 23 10 -12.5 100.8 27 -1 symmetric - - symmetric - - Image
1998 12 23 13 -12.9 100.9 27 -1 symmetric - - symmetric - - Image
1998 12 23 16 -13.2 101.0 27 -1 symmetric - - symmetric - - Image
1998 12 23 19 -13.6 101.1 27 -1 symmetric - - symmetric - - Image
1998 12 23 22 -14.1 101.1 27 -1 symmetric - - symmetric - - Image
1998 12 24 01 -14.7 100.9 29 -1 symmetric - - symmetric - - Image
1998 12 24 04 -15.2 100.7 35 -1 symmetric - - symmetric - - Image
1998 12 24 07 -15.5 100.4 35 -1 symmetric - - symmetric - - Image
1998 12 24 10 -15.6 100.2 41 -1 symmetric - - symmetric - - Image
1998 12 24 13 -15.7 100.0 41 -1 symmetric - - symmetric - - Image
1998 12 24 16 -15.8 99.8 41 -1 symmetric - - symmetric - - Image
1998 12 24 19 -15.8 99.5 49 -1 symmetric - - symmetric - - Image
1998 12 24 22 -15.8 99.2 49 -1 symmetric - - symmetric - - Image
1998 12 25 01 -15.8 98.9 49 -1 symmetric - - symmetric - - Image
1998 12 25 04 -16.0 98.5 54 -1 symmetric - - symmetric - - Image
1998 12 25 07 -16.2 98.3 54 -1 symmetric - - symmetric - - Image
1998 12 25 10 -16.4 98.1 54 -1 symmetric - - symmetric - - Image
1998 12 25 13 -16.6 97.8 54 -1 symmetric - - symmetric - - Image
1998 12 25 16 -16.7 97.4 54 -1 symmetric - - symmetric - - Image
1998 12 25 19 -16.7 97.0 60 -1 symmetric - - symmetric - - Image
1998 12 25 22 -16.7 96.6 60 -1 symmetric - - symmetric - - Image
1998 12 26 01 -16.6 96.2 60 -1 symmetric - - symmetric - - Image
1998 12 26 04 -16.6 95.8 60 -1 symmetric - - symmetric - - Image
1998 12 26 07 -16.6 95.5 60 -1 symmetric - - symmetric - - Image
1998 12 26 10 -16.5 95.2 54 -1 symmetric - - symmetric - - Image
1998 12 26 13 -16.5 94.9 54 -1 symmetric - - symmetric - - Image
1998 12 26 16 -16.4 94.7 54 -1 symmetric - - symmetric - - Image
1998 12 26 19 -16.3 94.5 49 -1 symmetric - - symmetric - - Image
1998 12 26 22 -16.2 94.2 41 -1 symmetric - - symmetric - - Image
1998 12 27 01 -16.2 93.9 39 -1 symmetric - - symmetric - - Image
1998 12 27 04 -16.1 93.6 35 -1 symmetric - - symmetric - - Image
1998 12 27 07 -16.1 93.3 33 -1 symmetric - - symmetric - - Image
1998 12 27 10 -16.0 93.0 29 -1 symmetric - - symmetric - - Image
1998 12 27 13 -16.0 92.7 27 -1 symmetric - - symmetric - - Image
1998 12 27 16 -15.9 92.3 27 -1 symmetric - - symmetric - - Image
1998 12 27 19 -15.9 91.7 23 -1 symmetric - - symmetric - - Image
1998 12 27 22 -15.8 91.2 23 -1 symmetric - - symmetric - - Image
1998 12 28 01 -15.8 90.6 21 -1 symmetric - - symmetric - - Image
1998 12 28 04 -15.8 90.1 21 -1 symmetric - - symmetric - - Image
< Cyclone 199904 1999 Season Cyclone 199906 >

Help